sensor_id;sensor_type;location;lat;lon;timestamp;P1;durP1;ratioP1;P2;durP2;ratioP2
52266;SDS011;38223;50.940;4.034;2023-08-30T00:00:23;6.45;;;4.70;;
52266;SDS011;38223;50.940;4.034;2023-08-30T00:02:53;6.15;;;4.78;;
52266;SDS011;38223;50.940;4.034;2023-08-30T00:05:22;5.37;;;4.87;;
52266;SDS011;38223;50.940;4.034;2023-08-30T00:07:56;5.85;;;4.47;;
52266;SDS011;38223;50.940;4.034;2023-08-30T00:10:25;4.80;;;4.30;;
52266;SDS011;38223;50.940;4.034;2023-08-30T00:13:00;4.87;;;4.47;;
52266;SDS011;38223;50.940;4.034;2023-08-30T00:15:29;6.22;;;4.62;;
52266;SDS011;38223;50.940;4.034;2023-08-30T00:18:03;6.72;;;5.05;;
52266;SDS011;38223;50.940;4.034;2023-08-30T00:20:34;5.35;;;4.87;;
52266;SDS011;38223;50.940;4.034;2023-08-30T00:23:08;5.55;;;5.08;;
52266;SDS011;38223;50.940;4.034;2023-08-30T00:25:38;5.40;;;5.00;;
52266;SDS011;38223;50.940;4.034;2023-08-30T00:28:13;6.25;;;5.20;;
52266;SDS011;38223;50.940;4.034;2023-08-30T00:30:41;6.92;;;5.10;;
52266;SDS011;38223;50.940;4.034;2023-08-30T00:33:12;5.80;;;5.20;;
52266;SDS011;38223;50.940;4.034;2023-08-30T00:35:44;5.78;;;5.28;;
52266;SDS011;38223;50.940;4.034;2023-08-30T00:38:13;5.72;;;5.10;;
52266;SDS011;38223;50.940;4.034;2023-08-30T00:40:44;6.47;;;5.37;;
52266;SDS011;38223;50.940;4.034;2023-08-30T00:43:16;5.80;;;5.30;;
52266;SDS011;38223;50.940;4.034;2023-08-30T00:45:45;6.53;;;5.80;;
52266;SDS011;38223;50.940;4.034;2023-08-30T00:48:21;6.95;;;5.30;;
52266;SDS011;38223;50.940;4.034;2023-08-30T00:50:52;5.95;;;5.42;;
52266;SDS011;38223;50.940;4.034;2023-08-30T00:53:27;8.23;;;5.40;;
52266;SDS011;38223;50.940;4.034;2023-08-30T00:55:57;7.65;;;5.20;;
52266;SDS011;38223;50.940;4.034;2023-08-30T00:58:33;5.42;;;4.92;;
52266;SDS011;38223;50.940;4.034;2023-08-30T01:01:02;6.25;;;5.75;;
52266;SDS011;38223;50.940;4.034;2023-08-30T01:03:35;6.58;;;5.97;;
52266;SDS011;38223;50.940;4.034;2023-08-30T01:06:06;7.80;;;5.80;;
52266;SDS011;38223;50.940;4.034;2023-08-30T01:08:40;6.47;;;5.37;;
52266;SDS011;38223;50.940;4.034;2023-08-30T01:11:22;6.40;;;5.80;;
52266;SDS011;38223;50.940;4.034;2023-08-30T01:16:37;6.45;;;5.85;;
52266;SDS011;38223;50.940;4.034;2023-08-30T01:22:00;7.12;;;5.95;;
52266;SDS011;38223;50.940;4.034;2023-08-30T01:24:58;6.97;;;6.37;;
52266;SDS011;38223;50.940;4.034;2023-08-30T01:27:32;6.90;;;6.20;;
52266;SDS011;38223;50.940;4.034;2023-08-30T01:30:03;9.65;;;6.65;;
52266;SDS011;38223;50.940;4.034;2023-08-30T01:32:36;6.90;;;6.20;;
52266;SDS011;38223;50.940;4.034;2023-08-30T01:35:12;7.10;;;6.47;;
52266;SDS011;38223;50.940;4.034;2023-08-30T01:37:45;8.18;;;6.53;;
52266;SDS011;38223;50.940;4.034;2023-08-30T01:40:20;7.22;;;6.58;;
52266;SDS011;38223;50.940;4.034;2023-08-30T01:42:49;7.28;;;6.40;;
52266;SDS011;38223;50.940;4.034;2023-08-30T01:45:25;7.30;;;6.60;;
52266;SDS011;38223;50.940;4.034;2023-08-30T01:47:59;6.95;;;6.15;;
52266;SDS011;38223;50.940;4.034;2023-08-30T01:50:29;7.83;;;7.07;;
52266;SDS011;38223;50.940;4.034;2023-08-30T01:53:06;8.08;;;6.72;;
52266;SDS011;38223;50.940;4.034;2023-08-30T01:55:40;7.15;;;6.55;;
52266;SDS011;38223;50.940;4.034;2023-08-30T01:58:15;7.65;;;6.90;;
52266;SDS011;38223;50.940;4.034;2023-08-30T02:00:44;8.65;;;6.80;;
52266;SDS011;38223;50.940;4.034;2023-08-30T02:03:19;8.25;;;7.03;;
52266;SDS011;38223;50.940;4.034;2023-08-30T02:06:00;7.78;;;7.08;;
52266;SDS011;38223;50.940;4.034;2023-08-30T02:08:41;14.00;;;7.30;;
52266;SDS011;38223;50.940;4.034;2023-08-30T02:11:28;7.65;;;6.95;;
52266;SDS011;38223;50.940;4.034;2023-08-30T02:13:59;8.15;;;7.35;;
52266;SDS011;38223;50.940;4.034;2023-08-30T02:16:33;7.87;;;7.10;;
52266;SDS011;38223;50.940;4.034;2023-08-30T02:19:07;7.50;;;6.78;;
52266;SDS011;38223;50.940;4.034;2023-08-30T02:21:39;7.78;;;6.95;;
52266;SDS011;38223;50.940;4.034;2023-08-30T02:24:15;7.67;;;6.97;;
52266;SDS011;38223;50.940;4.034;2023-08-30T02:26:46;6.90;;;6.35;;
52266;SDS011;38223;50.940;4.034;2023-08-30T02:29:21;8.00;;;6.90;;
52266;SDS011;38223;50.940;4.034;2023-08-30T02:31:49;7.90;;;7.17;;
52266;SDS011;38223;50.940;4.034;2023-08-30T02:34:21;8.80;;;6.60;;
52266;SDS011;38223;50.940;4.034;2023-08-30T02:36:52;7.92;;;7.20;;
52266;SDS011;38223;50.940;4.034;2023-08-30T02:39:24;9.98;;;6.35;;
52266;SDS011;38223;50.940;4.034;2023-08-30T02:41:58;7.75;;;6.40;;
52266;SDS011;38223;50.940;4.034;2023-08-30T02:44:27;7.27;;;6.53;;
52266;SDS011;38223;50.940;4.034;2023-08-30T02:47:00;7.00;;;6.30;;
52266;SDS011;38223;50.940;4.034;2023-08-30T02:49:32;8.00;;;7.20;;
52266;SDS011;38223;50.940;4.034;2023-08-30T02:52:06;8.68;;;6.83;;
52266;SDS011;38223;50.940;4.034;2023-08-30T02:54:36;7.78;;;6.70;;
52266;SDS011;38223;50.940;4.034;2023-08-30T02:57:08;7.12;;;5.90;;
52266;SDS011;38223;50.940;4.034;2023-08-30T02:59:40;6.95;;;6.37;;
52266;SDS011;38223;50.940;4.034;2023-08-30T03:02:11;7.10;;;6.50;;
52266;SDS011;38223;50.940;4.034;2023-08-30T03:04:44;9.05;;;7.05;;
52266;SDS011;38223;50.940;4.034;2023-08-30T03:07:14;6.95;;;6.25;;
52266;SDS011;38223;50.940;4.034;2023-08-30T03:09:43;8.68;;;6.60;;
52266;SDS011;38223;50.940;4.034;2023-08-30T03:12:20;7.37;;;6.70;;
52266;SDS011;38223;50.940;4.034;2023-08-30T03:14:50;6.95;;;6.35;;
52266;SDS011;38223;50.940;4.034;2023-08-30T03:17:23;7.85;;;7.12;;
52266;SDS011;38223;50.940;4.034;2023-08-30T03:19:53;7.33;;;6.72;;
52266;SDS011;38223;50.940;4.034;2023-08-30T03:22:23;9.13;;;6.58;;
52266;SDS011;38223;50.940;4.034;2023-08-30T03:24:54;11.00;;;7.30;;
52266;SDS011;38223;50.940;4.034;2023-08-30T03:27:24;6.78;;;6.17;;
52266;SDS011;38223;50.940;4.034;2023-08-30T03:29:57;8.90;;;6.65;;
52266;SDS011;38223;50.940;4.034;2023-08-30T03:32:27;8.40;;;7.60;;
52266;SDS011;38223;50.940;4.034;2023-08-30T03:34:58;7.92;;;7.20;;
52266;SDS011;38223;50.940;4.034;2023-08-30T03:37:29;10.93;;;7.53;;
52266;SDS011;38223;50.940;4.034;2023-08-30T03:40:00;7.72;;;6.80;;
52266;SDS011;38223;50.940;4.034;2023-08-30T03:42:30;10.18;;;6.70;;
52266;SDS011;38223;50.940;4.034;2023-08-30T03:45:03;9.70;;;7.28;;
52266;SDS011;38223;50.940;4.034;2023-08-30T03:47:36;9.48;;;6.60;;
52266;SDS011;38223;50.940;4.034;2023-08-30T03:50:04;7.15;;;6.50;;
52266;SDS011;38223;50.940;4.034;2023-08-30T03:52:35;8.93;;;6.70;;
52266;SDS011;38223;50.940;4.034;2023-08-30T03:55:04;9.45;;;7.28;;
52266;SDS011;38223;50.940;4.034;2023-08-30T03:57:39;9.23;;;7.37;;
52266;SDS011;38223;50.940;4.034;2023-08-30T04:00:11;12.65;;;9.05;;
52266;SDS011;38223;50.940;4.034;2023-08-30T04:02:46;10.30;;;7.90;;
52266;SDS011;38223;50.940;4.034;2023-08-30T04:05:19;9.95;;;8.30;;
52266;SDS011;38223;50.940;4.034;2023-08-30T04:07:52;8.87;;;7.90;;
52266;SDS011;38223;50.940;4.034;2023-08-30T04:10:23;12.43;;;8.78;;
52266;SDS011;38223;50.940;4.034;2023-08-30T04:12:58;9.15;;;8.25;;
52266;SDS011;38223;50.940;4.034;2023-08-30T04:15:28;10.43;;;8.73;;
52266;SDS011;38223;50.940;4.034;2023-08-30T04:18:03;8.80;;;8.00;;
52266;SDS011;38223;50.940;4.034;2023-08-30T04:20:43;8.50;;;7.63;;
52266;SDS011;38223;50.940;4.034;2023-08-30T04:23:18;9.33;;;8.43;;
52266;SDS011;38223;50.940;4.034;2023-08-30T04:25:47;13.48;;;9.30;;
52266;SDS011;38223;50.940;4.034;2023-08-30T04:28:18;11.45;;;9.63;;
52266;SDS011;38223;50.940;4.034;2023-08-30T04:30:52;10.93;;;9.23;;
52266;SDS011;38223;50.940;4.034;2023-08-30T04:33:25;11.88;;;10.50;;
52266;SDS011;38223;50.940;4.034;2023-08-30T04:35:56;11.08;;;10.00;;
52266;SDS011;38223;50.940;4.034;2023-08-30T04:38:26;13.25;;;10.95;;
52266;SDS011;38223;50.940;4.034;2023-08-30T04:40:57;12.30;;;11.18;;
52266;SDS011;38223;50.940;4.034;2023-08-30T04:43:28;14.65;;;11.85;;
52266;SDS011;38223;50.940;4.034;2023-08-30T04:46:01;14.70;;;11.97;;
52266;SDS011;38223;50.940;4.034;2023-08-30T04:48:32;18.85;;;12.30;;
52266;SDS011;38223;50.940;4.034;2023-08-30T04:51:02;14.73;;;13.30;;
52266;SDS011;38223;50.940;4.034;2023-08-30T04:53:35;14.07;;;11.95;;
52266;SDS011;38223;50.940;4.034;2023-08-30T04:56:13;15.60;;;13.35;;
52266;SDS011;38223;50.940;4.034;2023-08-30T04:58:47;15.72;;;12.28;;
52266;SDS011;38223;50.940;4.034;2023-08-30T05:01:16;15.15;;;12.88;;
52266;SDS011;38223;50.940;4.034;2023-08-30T05:03:47;13.48;;;11.93;;
52266;SDS011;38223;50.940;4.034;2023-08-30T05:06:18;14.20;;;12.70;;
52266;SDS011;38223;50.940;4.034;2023-08-30T05:08:52;13.98;;;12.10;;
52266;SDS011;38223;50.940;4.034;2023-08-30T05:11:24;12.73;;;11.05;;
52266;SDS011;38223;50.940;4.034;2023-08-30T05:13:54;11.93;;;10.80;;
52266;SDS011;38223;50.940;4.034;2023-08-30T05:16:28;13.35;;;10.95;;
52266;SDS011;38223;50.940;4.034;2023-08-30T05:18:59;14.40;;;11.22;;
52266;SDS011;38223;50.940;4.034;2023-08-30T05:21:34;11.90;;;10.75;;
52266;SDS011;38223;50.940;4.034;2023-08-30T05:24:04;11.65;;;10.30;;
52266;SDS011;38223;50.940;4.034;2023-08-30T05:26:37;11.85;;;10.82;;
52266;SDS011;38223;50.940;4.034;2023-08-30T05:29:10;11.30;;;10.10;;
52266;SDS011;38223;50.940;4.034;2023-08-30T05:31:43;12.25;;;10.98;;
52266;SDS011;38223;50.940;4.034;2023-08-30T05:34:14;11.68;;;10.43;;
52266;SDS011;38223;50.940;4.034;2023-08-30T05:36:46;11.50;;;10.50;;
52266;SDS011;38223;50.940;4.034;2023-08-30T05:39:17;12.30;;;10.55;;
52266;SDS011;38223;50.940;4.034;2023-08-30T05:41:48;13.05;;;11.80;;
52266;SDS011;38223;50.940;4.034;2023-08-30T05:44:18;14.58;;;11.40;;
52266;SDS011;38223;50.940;4.034;2023-08-30T05:46:51;13.20;;;12.07;;
52266;SDS011;38223;50.940;4.034;2023-08-30T05:49:29;16.02;;;12.43;;
52266;SDS011;38223;50.940;4.034;2023-08-30T05:52:02;14.33;;;12.88;;
52266;SDS011;38223;50.940;4.034;2023-08-30T05:54:34;13.60;;;12.28;;
52266;SDS011;38223;50.940;4.034;2023-08-30T05:57:05;14.23;;;12.25;;
52266;SDS011;38223;50.940;4.034;2023-08-30T05:59:34;13.60;;;12.40;;
52266;SDS011;38223;50.940;4.034;2023-08-30T06:02:11;15.32;;;12.85;;
52266;SDS011;38223;50.940;4.034;2023-08-30T06:04:41;14.68;;;13.20;;
52266;SDS011;38223;50.940;4.034;2023-08-30T06:07:11;15.18;;;13.68;;
52266;SDS011;38223;50.940;4.034;2023-08-30T06:09:42;17.05;;;12.73;;
52266;SDS011;38223;50.940;4.034;2023-08-30T06:12:14;14.20;;;12.78;;
52266;SDS011;38223;50.940;4.034;2023-08-30T06:14:46;16.52;;;12.65;;
52266;SDS011;38223;50.940;4.034;2023-08-30T06:17:15;13.38;;;12.07;;
52266;SDS011;38223;50.940;4.034;2023-08-30T06:19:45;13.53;;;12.23;;
52266;SDS011;38223;50.940;4.034;2023-08-30T06:22:19;13.45;;;11.88;;
52266;SDS011;38223;50.940;4.034;2023-08-30T06:24:53;12.07;;;11.05;;
52266;SDS011;38223;50.940;4.034;2023-08-30T06:27:23;16.57;;;11.95;;
52266;SDS011;38223;50.940;4.034;2023-08-30T06:29:56;12.35;;;11.08;;
52266;SDS011;38223;50.940;4.034;2023-08-30T06:32:30;11.90;;;10.70;;
52266;SDS011;38223;50.940;4.034;2023-08-30T06:34:59;12.10;;;10.90;;
52266;SDS011;38223;50.940;4.034;2023-08-30T06:37:33;11.85;;;10.65;;
52266;SDS011;38223;50.940;4.034;2023-08-30T06:40:04;12.13;;;10.88;;
52266;SDS011;38223;50.940;4.034;2023-08-30T06:42:36;10.90;;;9.90;;
52266;SDS011;38223;50.940;4.034;2023-08-30T06:45:06;10.82;;;9.80;;
52266;SDS011;38223;50.940;4.034;2023-08-30T06:47:37;11.43;;;9.58;;
52266;SDS011;38223;50.940;4.034;2023-08-30T06:50:10;13.53;;;9.13;;
52266;SDS011;38223;50.940;4.034;2023-08-30T06:52:42;9.03;;;8.13;;
52266;SDS011;38223;50.940;4.034;2023-08-30T06:55:11;10.40;;;8.95;;
52266;SDS011;38223;50.940;4.034;2023-08-30T06:57:47;10.00;;;9.10;;
52266;SDS011;38223;50.940;4.034;2023-08-30T07:00:14;9.08;;;8.38;;
52266;SDS011;38223;50.940;4.034;2023-08-30T07:02:43;9.10;;;8.23;;
52266;SDS011;38223;50.940;4.034;2023-08-30T07:05:20;9.10;;;8.30;;
52266;SDS011;38223;50.940;4.034;2023-08-30T07:07:51;8.28;;;7.53;;
52266;SDS011;38223;50.940;4.034;2023-08-30T07:10:24;9.00;;;8.20;;
52266;SDS011;38223;50.940;4.034;2023-08-30T07:12:54;8.20;;;7.55;;
52266;SDS011;38223;50.940;4.034;2023-08-30T07:15:25;7.65;;;7.00;;
52266;SDS011;38223;50.940;4.034;2023-08-30T07:17:54;7.33;;;6.72;;
52266;SDS011;38223;50.940;4.034;2023-08-30T07:20:26;7.65;;;6.97;;
52266;SDS011;38223;50.940;4.034;2023-08-30T07:22:57;7.62;;;6.95;;
52266;SDS011;38223;50.940;4.034;2023-08-30T07:25:34;8.20;;;7.50;;
52266;SDS011;38223;50.940;4.034;2023-08-30T07:28:05;7.87;;;7.20;;
52266;SDS011;38223;50.940;4.034;2023-08-30T07:30:34;7.80;;;7.10;;
52266;SDS011;38223;50.940;4.034;2023-08-30T07:33:03;8.20;;;7.50;;
52266;SDS011;38223;50.940;4.034;2023-08-30T07:35:32;8.10;;;7.42;;
52266;SDS011;38223;50.940;4.034;2023-08-30T07:38:03;8.45;;;7.75;;
52266;SDS011;38223;50.940;4.034;2023-08-30T07:40:35;8.53;;;7.72;;
52266;SDS011;38223;50.940;4.034;2023-08-30T07:43:05;10.98;;;9.03;;
52266;SDS011;38223;50.940;4.034;2023-08-30T07:45:36;15.60;;;14.10;;
52266;SDS011;38223;50.940;4.034;2023-08-30T07:48:10;24.60;;;12.63;;
52266;SDS011;38223;50.940;4.034;2023-08-30T07:50:40;9.58;;;8.88;;
52266;SDS011;38223;50.940;4.034;2023-08-30T07:53:12;9.65;;;8.68;;
52266;SDS011;38223;50.940;4.034;2023-08-30T07:55:48;9.93;;;9.05;;
52266;SDS011;38223;50.940;4.034;2023-08-30T07:58:20;9.38;;;8.60;;
52266;SDS011;38223;50.940;4.034;2023-08-30T08:00:52;9.40;;;8.70;;
52266;SDS011;38223;50.940;4.034;2023-08-30T08:03:24;9.05;;;8.43;;
52266;SDS011;38223;50.940;4.034;2023-08-30T08:05:58;9.18;;;8.38;;
52266;SDS011;38223;50.940;4.034;2023-08-30T08:08:29;9.10;;;8.23;;
52266;SDS011;38223;50.940;4.034;2023-08-30T08:11:02;9.20;;;8.48;;
52266;SDS011;38223;50.940;4.034;2023-08-30T08:13:32;10.05;;;9.28;;
52266;SDS011;38223;50.940;4.034;2023-08-30T08:16:02;9.20;;;8.40;;
52266;SDS011;38223;50.940;4.034;2023-08-30T08:18:38;10.15;;;9.13;;
52266;SDS011;38223;50.940;4.034;2023-08-30T08:21:07;10.00;;;8.98;;
52266;SDS011;38223;50.940;4.034;2023-08-30T08:23:34;9.43;;;8.80;;
52266;SDS011;38223;50.940;4.034;2023-08-30T08:26:04;8.95;;;8.25;;
52266;SDS011;38223;50.940;4.034;2023-08-30T08:28:33;10.58;;;8.95;;
52266;SDS011;38223;50.940;4.034;2023-08-30T08:31:09;9.83;;;8.88;;
52266;SDS011;38223;50.940;4.034;2023-08-30T08:33:40;9.73;;;8.73;;
52266;SDS011;38223;50.940;4.034;2023-08-30T08:36:07;10.23;;;9.38;;
52266;SDS011;38223;50.940;4.034;2023-08-30T08:38:39;10.90;;;9.98;;
52266;SDS011;38223;50.940;4.034;2023-08-30T08:41:15;9.43;;;8.53;;
52266;SDS011;38223;50.940;4.034;2023-08-30T08:43:47;8.70;;;8.13;;
52266;SDS011;38223;50.940;4.034;2023-08-30T08:46:15;8.53;;;7.85;;
52266;SDS011;38223;50.940;4.034;2023-08-30T08:48:44;8.88;;;8.20;;
52266;SDS011;38223;50.940;4.034;2023-08-30T08:51:14;8.40;;;7.75;;
52266;SDS011;38223;50.940;4.034;2023-08-30T08:53:46;9.00;;;8.38;;
52266;SDS011;38223;50.940;4.034;2023-08-30T08:56:18;8.23;;;7.53;;
52266;SDS011;38223;50.940;4.034;2023-08-30T08:58:53;7.50;;;6.97;;
52266;SDS011;38223;50.940;4.034;2023-08-30T09:01:21;9.13;;;7.50;;
52266;SDS011;38223;50.940;4.034;2023-08-30T09:03:50;6.85;;;6.28;;
52266;SDS011;38223;50.940;4.034;2023-08-30T09:06:25;7.80;;;7.20;;
52266;SDS011;38223;50.940;4.034;2023-08-30T09:08:57;7.25;;;6.42;;
52266;SDS011;38223;50.940;4.034;2023-08-30T09:11:26;7.05;;;6.33;;
52266;SDS011;38223;50.940;4.034;2023-08-30T09:13:57;10.20;;;6.33;;
52266;SDS011;38223;50.940;4.034;2023-08-30T09:16:28;7.45;;;6.50;;
52266;SDS011;38223;50.940;4.034;2023-08-30T09:19:00;7.87;;;6.20;;
52266;SDS011;38223;50.940;4.034;2023-08-30T09:21:31;7.40;;;6.78;;
52266;SDS011;38223;50.940;4.034;2023-08-30T09:24:02;7.83;;;6.55;;
52266;SDS011;38223;50.940;4.034;2023-08-30T09:26:34;8.28;;;6.53;;
52266;SDS011;38223;50.940;4.034;2023-08-30T09:29:07;8.08;;;7.33;;
52266;SDS011;38223;50.940;4.034;2023-08-30T09:31:37;8.08;;;6.92;;
52266;SDS011;38223;50.940;4.034;2023-08-30T09:34:16;6.87;;;6.25;;
52266;SDS011;38223;50.940;4.034;2023-08-30T09:36:46;6.45;;;5.87;;
52266;SDS011;38223;50.940;4.034;2023-08-30T09:39:16;6.72;;;5.60;;
52266;SDS011;38223;50.940;4.034;2023-08-30T09:41:47;7.92;;;5.45;;
52266;SDS011;38223;50.940;4.034;2023-08-30T09:44:19;6.50;;;5.33;;
52266;SDS011;38223;50.940;4.034;2023-08-30T09:46:49;9.80;;;5.62;;
52266;SDS011;38223;50.940;4.034;2023-08-30T09:49:22;8.43;;;5.50;;
52266;SDS011;38223;50.940;4.034;2023-08-30T09:51:54;9.00;;;4.95;;
52266;SDS011;38223;50.940;4.034;2023-08-30T09:54:24;6.37;;;5.67;;
52266;SDS011;38223;50.940;4.034;2023-08-30T09:56:54;7.50;;;4.85;;
52266;SDS011;38223;50.940;4.034;2023-08-30T09:59:26;6.47;;;5.65;;
52266;SDS011;38223;50.940;4.034;2023-08-30T10:01:56;10.25;;;5.08;;
52266;SDS011;38223;50.940;4.034;2023-08-30T10:06:53;6.90;;;2.90;;
52266;SDS011;38223;50.940;4.034;2023-08-30T10:09:25;3.47;;;2.75;;
52266;SDS011;38223;50.940;4.034;2023-08-30T10:11:57;5.15;;;2.98;;
52266;SDS011;38223;50.940;4.034;2023-08-30T10:14:30;6.28;;;3.00;;
52266;SDS011;38223;50.940;4.034;2023-08-30T10:17:02;5.50;;;2.35;;
52266;SDS011;38223;50.940;4.034;2023-08-30T10:19:30;4.25;;;2.60;;
52266;SDS011;38223;50.940;4.034;2023-08-30T10:24:37;6.03;;;2.92;;
52266;SDS011;38223;50.940;4.034;2023-08-30T10:27:08;6.03;;;2.85;;
52266;SDS011;38223;50.940;4.034;2023-08-30T10:29:37;3.58;;;1.85;;
52266;SDS011;38223;50.940;4.034;2023-08-30T10:34:35;4.45;;;1.80;;
52266;SDS011;38223;50.940;4.034;2023-08-30T10:37:11;4.80;;;2.22;;
52266;SDS011;38223;50.940;4.034;2023-08-30T10:39:47;4.87;;;2.40;;
52266;SDS011;38223;50.940;4.034;2023-08-30T10:42:15;5.35;;;2.15;;
52266;SDS011;38223;50.940;4.034;2023-08-30T10:44:51;6.50;;;2.25;;
52266;SDS011;38223;50.940;4.034;2023-08-30T10:47:27;7.17;;;2.22;;
52266;SDS011;38223;50.940;4.034;2023-08-30T10:49:59;6.37;;;1.80;;
52266;SDS011;38223;50.940;4.034;2023-08-30T10:52:33;6.15;;;2.20;;
52266;SDS011;38223;50.940;4.034;2023-08-30T10:55:10;6.72;;;2.20;;
52266;SDS011;38223;50.940;4.034;2023-08-30T10:57:44;3.75;;;1.75;;
52266;SDS011;38223;50.940;4.034;2023-08-30T11:00:23;5.83;;;2.12;;
52266;SDS011;38223;50.940;4.034;2023-08-30T11:02:51;7.33;;;2.55;;
52266;SDS011;38223;50.940;4.034;2023-08-30T11:05:22;8.90;;;2.45;;
52266;SDS011;38223;50.940;4.034;2023-08-30T11:07:53;6.40;;;2.20;;
52266;SDS011;38223;50.940;4.034;2023-08-30T11:10:21;5.75;;;2.10;;
52266;SDS011;38223;50.940;4.034;2023-08-30T11:12:49;4.62;;;1.72;;
52266;SDS011;38223;50.940;4.034;2023-08-30T11:15:17;5.67;;;2.00;;
52266;SDS011;38223;50.940;4.034;2023-08-30T11:17:47;7.87;;;2.30;;
52266;SDS011;38223;50.940;4.034;2023-08-30T11:20:15;4.97;;;1.90;;
52266;SDS011;38223;50.940;4.034;2023-08-30T11:22:50;6.72;;;2.05;;
52266;SDS011;38223;50.940;4.034;2023-08-30T11:25:22;6.80;;;1.90;;
52266;SDS011;38223;50.940;4.034;2023-08-30T11:28:01;6.40;;;1.60;;
52266;SDS011;38223;50.940;4.034;2023-08-30T11:30:27;5.67;;;1.95;;
52266;SDS011;38223;50.940;4.034;2023-08-30T11:32:57;4.17;;;1.70;;
52266;SDS011;38223;50.940;4.034;2023-08-30T11:35:24;8.95;;;1.92;;
52266;SDS011;38223;50.940;4.034;2023-08-30T11:37:58;4.90;;;1.67;;
52266;SDS011;38223;50.940;4.034;2023-08-30T11:40:29;7.03;;;2.20;;
52266;SDS011;38223;50.940;4.034;2023-08-30T11:45:27;5.35;;;1.75;;
52266;SDS011;38223;50.940;4.034;2023-08-30T11:47:58;5.12;;;1.60;;
52266;SDS011;38223;50.940;4.034;2023-08-30T11:50:29;6.15;;;2.08;;
52266;SDS011;38223;50.940;4.034;2023-08-30T11:52:59;7.47;;;2.08;;
52266;SDS011;38223;50.940;4.034;2023-08-30T11:55:30;6.33;;;2.10;;
52266;SDS011;38223;50.940;4.034;2023-08-30T11:58:03;9.33;;;2.10;;
52266;SDS011;38223;50.940;4.034;2023-08-30T12:00:34;6.10;;;2.00;;
52266;SDS011;38223;50.940;4.034;2023-08-30T12:03:05;5.37;;;1.75;;
52266;SDS011;38223;50.940;4.034;2023-08-30T12:05:36;5.83;;;1.65;;
52266;SDS011;38223;50.940;4.034;2023-08-30T12:08:16;5.80;;;1.60;;
52266;SDS011;38223;50.940;4.034;2023-08-30T12:10:41;5.08;;;1.42;;
52266;SDS011;38223;50.940;4.034;2023-08-30T12:13:19;9.13;;;1.47;;
52266;SDS011;38223;50.940;4.034;2023-08-30T12:15:48;4.80;;;1.60;;
52266;SDS011;38223;50.940;4.034;2023-08-30T12:18:24;5.42;;;1.50;;
52266;SDS011;38223;50.940;4.034;2023-08-30T12:20:58;3.75;;;1.30;;
52266;SDS011;38223;50.940;4.034;2023-08-30T12:23:27;4.85;;;1.10;;
52266;SDS011;38223;50.940;4.034;2023-08-30T12:26:00;5.03;;;1.57;;
52266;SDS011;38223;50.940;4.034;2023-08-30T12:28:41;4.17;;;1.35;;
52266;SDS011;38223;50.940;4.034;2023-08-30T12:31:10;5.70;;;1.22;;
52266;SDS011;38223;50.940;4.034;2023-08-30T12:33:37;3.92;;;1.35;;
52266;SDS011;38223;50.940;4.034;2023-08-30T12:36:06;4.20;;;1.20;;
52266;SDS011;38223;50.940;4.034;2023-08-30T12:38:36;4.22;;;1.17;;
52266;SDS011;38223;50.940;4.034;2023-08-30T12:41:06;3.30;;;1.40;;
52266;SDS011;38223;50.940;4.034;2023-08-30T12:43:37;4.53;;;1.47;;
52266;SDS011;38223;50.940;4.034;2023-08-30T12:46:11;4.33;;;1.32;;
52266;SDS011;38223;50.940;4.034;2023-08-30T12:48:43;5.05;;;1.20;;
52266;SDS011;38223;50.940;4.034;2023-08-30T12:51:14;4.17;;;1.45;;
52266;SDS011;38223;50.940;4.034;2023-08-30T12:53:46;3.80;;;1.12;;
52266;SDS011;38223;50.940;4.034;2023-08-30T12:56:18;5.80;;;1.37;;
52266;SDS011;38223;50.940;4.034;2023-08-30T12:58:47;7.00;;;1.67;;
52266;SDS011;38223;50.940;4.034;2023-08-30T13:01:14;2.52;;;1.20;;
52266;SDS011;38223;50.940;4.034;2023-08-30T13:03:42;4.12;;;1.10;;
52266;SDS011;38223;50.940;4.034;2023-08-30T13:06:09;5.70;;;1.20;;
52266;SDS011;38223;50.940;4.034;2023-08-30T13:08:38;2.90;;;1.00;;
52266;SDS011;38223;50.940;4.034;2023-08-30T13:11:12;7.40;;;1.98;;
52266;SDS011;38223;50.940;4.034;2023-08-30T13:13:42;6.78;;;2.30;;
52266;SDS011;38223;50.940;4.034;2023-08-30T13:16:12;4.92;;;1.45;;
52266;SDS011;38223;50.940;4.034;2023-08-30T13:18:42;13.22;;;2.17;;
52266;SDS011;38223;50.940;4.034;2023-08-30T13:21:09;5.93;;;1.37;;
52266;SDS011;38223;50.940;4.034;2023-08-30T13:23:43;5.58;;;1.40;;
52266;SDS011;38223;50.940;4.034;2023-08-30T13:26:18;3.92;;;1.20;;
52266;SDS011;38223;50.940;4.034;2023-08-30T13:28:48;2.65;;;1.15;;
52266;SDS011;38223;50.940;4.034;2023-08-30T13:31:17;4.33;;;1.40;;
52266;SDS011;38223;50.940;4.034;2023-08-30T13:33:45;3.67;;;1.27;;
52266;SDS011;38223;50.940;4.034;2023-08-30T13:36:12;3.70;;;1.40;;
52266;SDS011;38223;50.940;4.034;2023-08-30T13:38:43;4.40;;;1.20;;
52266;SDS011;38223;50.940;4.034;2023-08-30T13:41:12;3.05;;;1.20;;
52266;SDS011;38223;50.940;4.034;2023-08-30T13:43:39;6.00;;;1.37;;
52266;SDS011;38223;50.940;4.034;2023-08-30T13:46:15;2.62;;;1.22;;
52266;SDS011;38223;50.940;4.034;2023-08-30T13:48:45;3.08;;;1.25;;
52266;SDS011;38223;50.940;4.034;2023-08-30T13:51:24;3.95;;;0.90;;
52266;SDS011;38223;50.940;4.034;2023-08-30T13:53:55;2.87;;;0.90;;
52266;SDS011;38223;50.940;4.034;2023-08-30T13:56:26;4.60;;;1.22;;
52266;SDS011;38223;50.940;4.034;2023-08-30T13:58:57;3.55;;;0.98;;
52266;SDS011;38223;50.940;4.034;2023-08-30T14:01:27;4.87;;;0.80;;
52266;SDS011;38223;50.940;4.034;2023-08-30T14:03:59;3.98;;;0.80;;
52266;SDS011;38223;50.940;4.034;2023-08-30T14:06:27;3.43;;;0.90;;
52266;SDS011;38223;50.940;4.034;2023-08-30T14:08:54;4.83;;;1.05;;
52266;SDS011;38223;50.940;4.034;2023-08-30T14:11:22;4.17;;;1.02;;
52266;SDS011;38223;50.940;4.034;2023-08-30T14:13:49;3.15;;;1.10;;
52266;SDS011;38223;50.940;4.034;2023-08-30T14:16:19;2.77;;;1.10;;
52266;SDS011;38223;50.940;4.034;2023-08-30T14:18:46;1.92;;;0.75;;
52266;SDS011;38223;50.940;4.034;2023-08-30T14:21:14;2.30;;;1.12;;
52266;SDS011;38223;50.940;4.034;2023-08-30T14:23:45;2.42;;;0.85;;
52266;SDS011;38223;50.940;4.034;2023-08-30T14:26:15;3.83;;;1.00;;
52266;SDS011;38223;50.940;4.034;2023-08-30T14:28:43;4.37;;;0.95;;
52266;SDS011;38223;50.940;4.034;2023-08-30T14:31:17;2.70;;;0.90;;
52266;SDS011;38223;50.940;4.034;2023-08-30T14:33:45;4.85;;;0.95;;
52266;SDS011;38223;50.940;4.034;2023-08-30T14:36:14;3.42;;;0.90;;
52266;SDS011;38223;50.940;4.034;2023-08-30T14:38:42;6.60;;;1.50;;
52266;SDS011;38223;50.940;4.034;2023-08-30T14:41:09;4.28;;;1.55;;
52266;SDS011;38223;50.940;4.034;2023-08-30T14:43:38;3.83;;;1.13;;
52266;SDS011;38223;50.940;4.034;2023-08-30T14:46:10;2.87;;;0.90;;
52266;SDS011;38223;50.940;4.034;2023-08-30T14:48:39;3.08;;;1.00;;
52266;SDS011;38223;50.940;4.034;2023-08-30T14:51:10;3.77;;;0.90;;
52266;SDS011;38223;50.940;4.034;2023-08-30T14:53:43;2.72;;;0.93;;
52266;SDS011;38223;50.940;4.034;2023-08-30T14:56:15;4.28;;;1.20;;
52266;SDS011;38223;50.940;4.034;2023-08-30T14:58:46;2.90;;;1.00;;
52266;SDS011;38223;50.940;4.034;2023-08-30T15:01:18;3.75;;;1.12;;
52266;SDS011;38223;50.940;4.034;2023-08-30T15:03:45;2.42;;;0.88;;
52266;SDS011;38223;50.940;4.034;2023-08-30T15:06:15;3.83;;;0.90;;
52266;SDS011;38223;50.940;4.034;2023-08-30T15:08:42;3.50;;;0.90;;
52266;SDS011;38223;50.940;4.034;2023-08-30T15:11:10;2.22;;;0.72;;
52266;SDS011;38223;50.940;4.034;2023-08-30T15:13:39;1.77;;;0.70;;
52266;SDS011;38223;50.940;4.034;2023-08-30T15:16:09;1.57;;;0.75;;
52266;SDS011;38223;50.940;4.034;2023-08-30T15:18:37;6.67;;;1.10;;
52266;SDS011;38223;50.940;4.034;2023-08-30T15:21:08;1.80;;;0.85;;
52266;SDS011;38223;50.940;4.034;2023-08-30T15:23:36;2.17;;;0.85;;